Teixeira de Freitas, Brazil
Current Conditions -  °F | °C
As of 11:00 AM on Monday 26 Jan 2015 (Local Time) from SBPS Reporting Station
Scattered Clouds Scattered Clouds  
Wind Chill: 86°   Ceiling: Unl
Heat Index: 92°   Visibility: 6mi
Dew Point: 72°   Wind: 16mph
Humidity: 62%   Direction: 80°E
Pressure: 29.97"   Gusts: NA
Location:  17.54°S, 39.74°W
Report Text: SBPS 261400Z 08014KT 9999 SCT030 30/22 Q1015
Loading
Personal Weather Stations






























Interactive Weather Map New forecast layout! Learn more

10-Day Weather Forecast

Advertisements
Track Severe Weather on mobile